createdAt,value
2022-11-16T06:19:10.085Z,96640.13
2022-11-16T06:21:38.245Z,96637.28
2022-11-16T06:24:09.825Z,96629.63
2022-11-16T06:26:37.528Z,96640.13
2022-11-16T06:29:05.710Z,96636.25
2022-11-16T06:31:35.017Z,96651.31
2022-11-16T06:34:03.996Z,96643.34
2022-11-16T06:36:31.654Z,96627.47
2022-11-16T06:39:01.331Z,96631.50
2022-11-16T06:41:32.254Z,96638.53
2022-11-16T06:44:00.079Z,96625.91
2022-11-16T06:46:33.251Z,96633.69
2022-11-16T06:49:00.902Z,96622.97
2022-11-16T06:51:28.830Z,96616.59
2022-11-16T06:53:56.560Z,96633.38
2022-11-16T06:56:25.049Z,96637.56
2022-11-16T06:58:58.042Z,96644.53
2022-11-16T07:01:28.289Z,96632.31
2022-11-16T07:04:12.146Z,96643.13
2022-11-16T07:06:43.752Z,96653.00
2022-11-16T07:09:14.271Z,96648.63
2022-11-16T07:11:42.124Z,96637.34
2022-11-16T07:14:10.156Z,96639.31
2022-11-16T07:16:38.400Z,96638.22
2022-11-16T07:19:06.300Z,96629.69
2022-11-16T07:21:37.565Z,96635.25
2022-11-16T07:24:09.191Z,96635.06
2022-11-16T07:26:36.976Z,96622.75
2022-11-16T07:29:10.015Z,96613.66
2022-11-16T07:31:42.335Z,96605.19
2022-11-16T07:34:42.377Z,96612.88
2022-11-16T07:37:14.444Z,96618.78
2022-11-16T07:39:42.091Z,96610.50
2022-11-16T07:42:11.961Z,96606.84
2022-11-16T07:45:17.976Z,96583.84
2022-11-16T07:47:53.605Z,96584.66
2022-11-16T07:50:47.942Z,96586.25
2022-11-16T07:53:17.130Z,96586.66
2022-11-16T07:55:51.914Z,96576.94
2022-11-16T07:58:20.729Z,96574.94
2022-11-16T08:00:48.724Z,96573.72
2022-11-16T08:03:21.782Z,96568.03
2022-11-16T08:05:59.511Z,96571.25
2022-11-16T08:08:27.590Z,96567.25
2022-11-16T08:11:02.151Z,96560.06
2022-11-16T08:13:32.131Z,96547.56
2022-11-16T08:16:11.622Z,96555.44
2022-11-16T08:18:39.642Z,96548.78
2022-11-16T08:21:08.891Z,96547.13
2022-11-16T08:23:36.777Z,96543.16
2022-11-16T08:26:05.945Z,96545.19
2022-11-16T08:28:34.236Z,96531.44
2022-11-16T08:31:09.618Z,96527.00
2022-11-16T08:33:38.618Z,96530.66
2022-11-16T08:36:13.579Z,96539.53
2022-11-16T08:38:42.108Z,96533.06
2022-11-16T08:41:10.042Z,96524.56
2022-11-16T08:43:39.683Z,96532.66
2022-11-16T08:46:09.262Z,96509.66
2022-11-16T08:48:38.869Z,96530.47
2022-11-16T08:51:18.932Z,96541.59
2022-11-16T08:53:57.082Z,96535.13
2022-11-16T08:56:27.470Z,96537.94
2022-11-16T08:58:58.588Z,96536.94
2022-11-16T09:01:28.367Z,96533.31
2022-11-16T09:03:56.542Z,96536.97
2022-11-16T09:06:24.820Z,96524.19
2022-11-16T09:08:52.838Z,96535.72
2022-11-16T09:11:22.094Z,96530.47
2022-11-16T09:13:50.827Z,96529.25
2022-11-16T09:16:20.973Z,96538.38
2022-11-16T09:18:49.776Z,96544.47
2022-11-16T09:21:25.280Z,96525.50
2022-11-16T09:23:53.455Z,96518.84
2022-11-16T09:26:23.305Z,96507.16
2022-11-16T09:28:58.474Z,96511.00
2022-11-16T09:31:29.348Z,96515.41
2022-11-16T09:33:58.932Z,96506.91
2022-11-16T09:36:27.835Z,96497.41
2022-11-16T09:42:02.406Z,96487.25
2022-11-16T09:45:01.401Z,96482.97
2022-11-16T09:47:52.176Z,96492.66
2022-11-16T09:50:34.732Z,96499.50
2022-11-16T09:53:18.383Z,96493.44
2022-11-16T09:55:54.212Z,96498.44
2022-11-16T09:58:50.307Z,96492.50
2022-11-16T10:01:34.229Z,96481.47
2022-11-16T10:04:18.939Z,96480.97
2022-11-16T10:07:02.043Z,96480.88
2022-11-16T10:09:30.239Z,96470.50
2022-11-16T10:12:19.216Z,96476.38
2022-11-16T10:15:07.310Z,96463.53
2022-11-16T10:18:08.563Z,96451.16
2022-11-16T10:21:03.651Z,96460.78
2022-11-16T10:24:03.950Z,96459.41
2022-11-16T10:26:53.869Z,96454.38
2022-11-16T10:29:31.493Z,96441.97
2022-11-16T10:32:13.081Z,96435.66
2022-11-16T10:34:56.588Z,96439.47
2022-11-16T10:37:33.458Z,96452.31
2022-11-16T10:40:01.212Z,96448.78
2022-11-16T10:42:36.697Z,96452.66
2022-11-16T10:45:07.217Z,96432.75
2022-11-16T10:47:47.279Z,96434.16
2022-11-16T10:50:44.015Z,96428.88
2022-11-16T10:53:15.571Z,96433.22
2022-11-16T10:55:43.746Z,96421.34
2022-11-16T10:58:11.857Z,96424.41
2022-11-16T11:00:47.592Z,96413.00
2022-11-16T11:03:15.501Z,96413.00
2022-11-16T11:05:48.880Z,96400.75
2022-11-16T11:08:30.731Z,96406.03
2022-11-16T11:11:24.520Z,96390.09
2022-11-16T11:14:08.354Z,96399.34
2022-11-16T11:16:36.224Z,96396.03
2022-11-16T11:19:39.860Z,96417.97
2022-11-16T11:22:10.604Z,96417.31
2022-11-16T11:24:44.596Z,96409.50
2022-11-16T11:27:13.611Z,96409.41
2022-11-16T11:29:41.942Z,96401.59
2022-11-16T11:32:22.422Z,96414.44
2022-11-16T11:34:53.564Z,96405.84
2022-11-16T11:37:25.808Z,96405.97
2022-11-16T11:40:20.122Z,96393.47
2022-11-16T11:43:00.586Z,96399.22
2022-11-16T11:45:33.647Z,96397.16
2022-11-16T11:48:03.359Z,96387.50
2022-11-16T11:50:51.272Z,96386.25
2022-11-16T11:53:39.837Z,96374.53
2022-11-16T11:56:07.881Z,96367.13
2022-11-16T11:58:37.545Z,96369.50
2022-11-16T12:01:08.457Z,96368.47
2022-11-16T12:03:54.953Z,96376.81
2022-11-16T12:06:30.163Z,96370.03
2022-11-16T12:09:09.883Z,96368.03
2022-11-16T12:11:48.902Z,96349.03
2022-11-16T12:14:46.889Z,96344.72
2022-11-16T12:17:44.524Z,96341.25
2022-11-16T12:20:43.255Z,96323.31
2022-11-16T12:23:52.461Z,96326.81
2022-11-16T12:26:41.441Z,96309.00
2022-11-16T12:29:19.294Z,96302.06
2022-11-16T12:32:09.357Z,96299.72
2022-11-16T12:35:11.402Z,96302.00
2022-11-16T12:38:04.136Z,96304.50
2022-11-16T12:40:43.060Z,96301.72
2022-11-16T12:43:14.443Z,96298.13
2022-11-16T12:45:50.882Z,96300.16
2022-11-16T12:48:41.006Z,96306.06
2022-11-16T12:51:16.149Z,96308.31
2022-11-16T12:54:11.877Z,96308.31
2022-11-16T12:56:48.834Z,96302.31
2022-11-16T12:59:46.840Z,96307.56
2022-11-16T13:02:36.087Z,96302.78
2022-11-16T13:05:12.381Z,96292.13
2022-11-16T13:07:50.689Z,96295.75
2022-11-16T13:10:24.569Z,96299.63
2022-11-16T13:13:09.020Z,96284.09
2022-11-16T13:15:41.712Z,96284.75
2022-11-16T13:18:13.587Z,96267.19
2022-11-16T13:20:53.652Z,96280.31
2022-11-16T13:23:50.144Z,96279.16
2022-11-16T13:26:26.161Z,96258.16
2022-11-16T13:28:57.058Z,96255.91
2022-11-16T13:31:29.689Z,96261.34
2022-11-16T13:34:07.077Z,96259.31
2022-11-16T13:36:40.627Z,96275.94
2022-11-16T13:39:08.579Z,96263.41
2022-11-16T13:41:39.370Z,96271.09
2022-11-16T13:44:28.114Z,96260.44
2022-11-16T13:47:03.786Z,96259.84
2022-11-16T13:49:38.214Z,96259.47
2022-11-16T13:52:23.359Z,96259.09
2022-11-16T13:54:54.156Z,96251.22
2022-11-16T13:57:30.058Z,96255.81
2022-11-16T14:00:00.740Z,96256.41
2022-11-16T14:02:28.248Z,96251.41
2022-11-16T14:04:56.815Z,96249.13
2022-11-16T14:07:32.908Z,96248.34
2022-11-16T14:10:01.285Z,96241.06
2022-11-16T14:12:38.352Z,96236.19
2022-11-16T14:15:15.122Z,96237.56
2022-11-16T14:18:11.818Z,96221.41
2022-11-16T14:20:51.911Z,96207.88
2022-11-16T14:23:53.677Z,96198.13
2022-11-16T14:26:27.376Z,96190.22
2022-11-16T14:29:14.263Z,96185.53
2022-11-16T14:31:56.851Z,96182.50
2022-11-16T14:34:51.503Z,96167.53
2022-11-16T14:37:22.356Z,96171.16
2022-11-16T14:39:50.669Z,96173.22
2022-11-16T14:42:26.295Z,96158.63
2022-11-16T14:45:01.575Z,96168.28
2022-11-16T14:47:30.907Z,96171.13
2022-11-16T14:49:58.660Z,96176.59
2022-11-16T14:52:38.137Z,96169.53
2022-11-16T14:55:08.219Z,96173.75
2022-11-16T14:57:35.965Z,96183.66
2022-11-16T15:00:21.992Z,96185.13
2022-11-16T15:02:54.373Z,96175.66
2022-11-16T15:05:28.610Z,96172.94
2022-11-16T15:07:57.830Z,96159.88
2022-11-16T15:10:26.625Z,96158.25
2022-11-16T15:12:55.175Z,96146.44
2022-11-16T15:15:24.462Z,96145.19
2022-11-16T15:17:59.433Z,96145.41
